createdAt,value
2024-05-09T00:01:48.814Z,14.38
2024-05-09T00:04:37.316Z,14.48
2024-05-09T00:07:22.600Z,14.75
2024-05-09T00:10:11.834Z,14.09
2024-05-09T00:13:03.596Z,14.31
2024-05-09T00:15:50.940Z,14.50
2024-05-09T00:18:36.275Z,14.63
2024-05-09T00:21:21.502Z,14.41
2024-05-09T00:24:06.769Z,14.33
2024-05-09T00:26:54.661Z,14.73
2024-05-09T00:29:42.900Z,14.99
2024-05-09T00:32:28.369Z,15.13
2024-05-09T00:35:13.581Z,14.96
2024-05-09T00:37:58.812Z,14.76
2024-05-09T00:40:53.501Z,14.38
2024-05-09T00:43:39.156Z,14.39
2024-05-09T00:46:28.068Z,14.26
2024-05-09T00:49:23.899Z,14.15
2024-05-09T00:52:09.621Z,13.39
2024-05-09T00:54:57.738Z,13.39
2024-05-09T00:57:42.908Z,13.25
2024-05-09T01:00:35.948Z,13.33
2024-05-09T01:03:25.264Z,12.98
2024-05-09T01:06:12.772Z,12.82
2024-05-09T01:08:58.169Z,12.89
2024-05-09T01:11:46.772Z,12.76
2024-05-09T01:14:37.331Z,12.92
2024-05-09T01:17:39.252Z,12.88
2024-05-09T01:20:39.660Z,13.13
2024-05-09T01:23:32.461Z,13.33
2024-05-09T01:26:20.375Z,13.05
2024-05-09T01:29:09.216Z,12.81
2024-05-09T01:31:55.107Z,12.66
2024-05-09T01:34:40.673Z,12.76
2024-05-09T01:37:26.272Z,12.88
2024-05-09T01:40:22.106Z,12.43
2024-05-09T01:43:11.643Z,12.76
2024-05-09T01:45:57.254Z,12.88
2024-05-09T01:48:42.607Z,12.91
2024-05-09T01:51:28.137Z,12.69
2024-05-09T01:54:14.588Z,12.90
2024-05-09T01:57:00.181Z,12.93
2024-05-09T01:59:45.595Z,13.36
2024-05-09T02:02:30.599Z,13.04
2024-05-09T02:05:16.150Z,13.54
2024-05-09T02:08:04.806Z,13.86
2024-05-09T02:10:50.601Z,13.51
2024-05-09T02:13:36.260Z,13.97
2024-05-09T02:16:21.411Z,14.00
2024-05-09T02:19:10.034Z,13.79
2024-05-09T02:21:55.612Z,13.91
2024-05-09T02:24:40.834Z,13.74
2024-05-09T02:27:26.248Z,13.81
2024-05-09T02:30:18.801Z,13.65
2024-05-09T02:33:13.222Z,13.90
2024-05-09T02:36:02.616Z,13.71
2024-05-09T02:38:49.900Z,13.10
2024-05-09T02:41:38.230Z,12.64
2024-05-09T02:44:23.721Z,13.03
2024-05-09T02:47:15.484Z,12.95
2024-05-09T02:50:00.910Z,12.57
2024-05-09T02:52:46.378Z,12.72
2024-05-09T02:55:31.910Z,12.56
2024-05-09T02:58:17.066Z,12.78
2024-05-09T03:01:03.487Z,12.73
2024-05-09T03:03:49.164Z,12.71
2024-05-09T03:06:34.130Z,12.65
2024-05-09T03:09:21.476Z,12.57
2024-05-09T03:12:07.038Z,12.31
2024-05-09T03:14:56.517Z,12.41
2024-05-09T03:17:42.150Z,12.42
2024-05-09T03:20:33.296Z,12.53
2024-05-09T03:23:20.479Z,12.64
2024-05-09T03:26:05.747Z,12.41
2024-05-09T03:28:54.448Z,12.11
2024-05-09T03:31:42.951Z,12.09
2024-05-09T03:34:28.306Z,12.75
2024-05-09T03:37:13.671Z,12.40
2024-05-09T03:40:09.134Z,12.55
2024-05-09T03:43:00.478Z,12.69
2024-05-09T03:45:46.150Z,13.16
2024-05-09T03:48:31.349Z,13.21
2024-05-09T03:51:16.728Z,13.42
2024-05-09T03:54:03.833Z,13.39
2024-05-09T03:56:56.602Z,13.30
2024-05-09T03:59:49.755Z,13.71
2024-05-09T04:02:38.053Z,13.93
2024-05-09T04:08:22.456Z,13.92
2024-05-09T04:11:14.120Z,14.28
2024-05-09T04:13:59.312Z,13.96
2024-05-09T04:16:47.674Z,13.41
2024-05-09T04:19:33.027Z,13.31
2024-05-09T04:22:18.145Z,13.30
2024-05-09T04:25:07.954Z,13.17
2024-05-09T04:27:53.705Z,13.17
2024-05-09T04:30:41.112Z,13.30
2024-05-09T04:33:28.722Z,13.22
2024-05-09T04:36:16.891Z,13.81
2024-05-09T04:39:03.297Z,13.50
2024-05-09T04:41:49.831Z,13.58
2024-05-09T04:44:35.094Z,13.06
2024-05-09T04:47:20.399Z,13.24
2024-05-09T04:50:05.753Z,13.15
2024-05-09T04:52:51.073Z,12.75
2024-05-09T04:55:36.517Z,12.87
2024-05-09T04:58:21.614Z,12.85
2024-05-09T05:01:11.182Z,13.10
2024-05-09T05:04:04.811Z,13.70
2024-05-09T05:06:50.087Z,12.68
2024-05-09T05:09:36.608Z,13.24
2024-05-09T05:12:22.078Z,12.41
2024-05-09T05:15:07.312Z,12.79
2024-05-09T05:17:52.488Z,12.87
2024-05-09T05:20:37.507Z,13.17
2024-05-09T05:23:22.994Z,12.93
2024-05-09T05:26:08.431Z,12.57
2024-05-09T05:28:53.778Z,12.65
2024-05-09T05:31:42.188Z,12.42
2024-05-09T05:34:27.439Z,12.56
2024-05-09T05:37:13.827Z,12.63
2024-05-09T05:39:59.184Z,13.15
2024-05-09T05:42:44.517Z,12.76
2024-05-09T05:45:31.270Z,12.78
2024-05-09T05:48:17.209Z,12.90
2024-05-09T05:51:04.610Z,13.05
2024-05-09T05:53:50.348Z,12.86
2024-05-09T05:56:35.729Z,12.77
2024-05-09T05:59:21.830Z,13.01
2024-05-09T06:02:07.094Z,12.61
2024-05-09T06:04:52.298Z,12.47
2024-05-09T06:07:37.918Z,13.09
2024-05-09T06:10:29.633Z,13.29
2024-05-09T06:13:20.233Z,12.90
2024-05-09T06:16:05.534Z,12.59
2024-05-09T06:18:55.528Z,12.86
2024-05-09T06:21:45.996Z,12.33
2024-05-09T06:24:31.380Z,12.40
2024-05-09T06:27:19.993Z,12.75
2024-05-09T06:30:08.232Z,12.79
2024-05-09T06:33:04.750Z,12.66
2024-05-09T06:35:50.461Z,12.84
2024-05-09T06:38:37.404Z,12.69
2024-05-09T06:41:22.868Z,12.88
2024-05-09T06:44:08.195Z,12.78
2024-05-09T06:46:54.622Z,12.99
2024-05-09T06:49:44.255Z,13.39
2024-05-09T06:52:31.422Z,13.09
2024-05-09T06:55:16.859Z,13.65
2024-05-09T06:58:02.197Z,13.93
2024-05-09T07:00:47.693Z,13.30
2024-05-09T07:03:32.836Z,13.48
2024-05-09T07:06:20.370Z,13.68
2024-05-09T07:09:05.885Z,14.13
2024-05-09T07:11:53.612Z,14.31
2024-05-09T07:14:38.851Z,14.59
2024-05-09T07:17:31.515Z,15.19
2024-05-09T07:20:23.664Z,14.69
2024-05-09T07:23:20.140Z,14.41
2024-05-09T07:26:05.465Z,14.88
2024-05-09T07:28:50.897Z,15.04
2024-05-09T07:31:38.178Z,15.52
2024-05-09T07:34:24.294Z,14.75
2024-05-09T07:37:10.443Z,14.69
2024-05-09T07:39:57.389Z,14.93
2024-05-09T07:42:43.951Z,14.80
2024-05-09T07:45:47.562Z,15.01
2024-05-09T07:53:14.224Z,15.79
2024-05-09T07:54:44.307Z,15.65
2024-05-09T07:57:29.462Z,15.89
2024-05-09T08:00:20.368Z,15.76
2024-05-09T08:06:17.885Z,15.45
2024-05-09T08:09:21.367Z,15.14
2024-05-09T08:15:12.723Z,15.54
2024-05-09T08:18:01.386Z,16.22
2024-05-09T08:20:57.015Z,15.77
2024-05-09T08:23:49.318Z,15.77
2024-05-09T08:26:47.127Z,15.77
2024-05-09T08:32:35.943Z,16.09
2024-05-09T08:38:40.502Z,16.20
2024-05-09T08:44:48.142Z,16.30
2024-05-09T08:50:38.553Z,16.50
2024-05-09T08:53:25.385Z,16.72
2024-05-09T08:56:14.872Z,16.94
2024-05-09T08:59:00.726Z,16.58
2024-05-09T09:04:48.738Z,16.13
2024-05-09T09:10:43.081Z,16.32
2024-05-09T09:13:40.355Z,16.18
2024-05-09T09:16:25.800Z,16.76
2024-05-09T09:22:26.072Z,16.46
2024-05-09T09:31:28.773Z,16.76
2024-05-09T09:34:26.818Z,16.79
2024-05-09T09:37:12.074Z,16.19
2024-05-09T09:40:32.073Z,16.04
2024-05-09T09:43:12.055Z,16.02
2024-05-09T09:45:57.643Z,16.80
2024-05-09T09:48:43.419Z,16.75
2024-05-09T09:51:54.575Z,16.94
2024-05-09T09:54:49.788Z,16.14
2024-05-09T09:57:56.822Z,15.95
2024-05-09T10:00:49.910Z,16.51
2024-05-09T10:03:39.345Z,15.64
2024-05-09T10:06:38.443Z,16.33
2024-05-09T10:22:12.561Z,18.50
2024-05-09T10:25:23.305Z,18.13
2024-05-09T10:29:15.045Z,18.03
2024-05-09T10:31:27.706Z,18.18
2024-05-09T10:37:23.072Z,17.16
2024-05-09T10:40:17.259Z,17.91
2024-05-09T10:46:06.918Z,18.81
2024-05-09T10:48:52.404Z,19.00
2024-05-09T10:51:38.615Z,19.36
2024-05-09T10:54:23.899Z,18.79
2024-05-09T10:57:09.123Z,18.54
2024-05-09T10:59:54.468Z,18.86
2024-05-09T11:02:39.947Z,17.68
2024-05-09T11:05:25.474Z,18.29
2024-05-09T11:08:10.751Z,19.23
2024-05-09T11:10:56.955Z,18.81
2024-05-09T11:13:42.370Z,18.01
2024-05-09T11:16:27.765Z,18.02
2024-05-09T11:19:13.113Z,18.92
2024-05-09T11:21:58.846Z,18.97
2024-05-09T11:24:44.081Z,18.88
2024-05-09T11:27:29.600Z,18.87
2024-05-09T11:30:24.175Z,18.48
2024-05-09T11:33:15.224Z,19.36
2024-05-09T11:36:03.543Z,19.78
2024-05-09T11:38:48.558Z,18.61
2024-05-09T11:41:33.857Z,18.72
2024-05-09T11:44:19.052Z,18.94
2024-05-09T11:47:04.335Z,19.22
2024-05-09T11:49:50.095Z,18.40
2024-05-09T11:52:54.095Z,18.54
2024-05-09T11:58:44.074Z,18.42
2024-05-09T12:01:32.527Z,18.86
2024-05-09T12:04:18.379Z,18.84
2024-05-09T12:07:04.311Z,19.23
2024-05-09T12:09:50.758Z,18.60
2024-05-09T12:12:38.932Z,18.66
2024-05-09T12:15:27.589Z,18.92
2024-05-09T12:18:20.922Z,19.23
2024-05-09T12:21:07.676Z,19.48
2024-05-09T12:23:56.977Z,19.78
2024-05-09T12:26:42.148Z,19.31
2024-05-09T12:29:30.822Z,18.77
2024-05-09T12:32:20.463Z,19.21
2024-05-09T12:35:07.780Z,20.14
2024-05-09T12:37:54.455Z,20.02
2024-05-09T12:40:43.702Z,19.67
2024-05-09T12:46:27.893Z,20.94
2024-05-09T12:49:22.748Z,20.81
2024-05-09T12:52:25.610Z,20.26
2024-05-09T12:55:22.891Z,20.37
2024-05-09T12:58:18.592Z,21.47
2024-05-09T13:01:03.906Z,20.37
2024-05-09T13:03:49.493Z,21.08
2024-05-09T13:06:37.920Z,20.60
2024-05-09T13:09:29.473Z,20.81
2024-05-09T13:12:17.723Z,21.70
2024-05-09T13:15:13.019Z,21.39
2024-05-09T13:18:02.943Z,21.15
2024-05-09T13:20:51.015Z,21.04
2024-05-09T13:26:46.266Z,20.81
2024-05-09T13:32:48.575Z,21.69
2024-05-09T13:35:34.030Z,22.03
2024-05-09T13:38:29.894Z,21.64
2024-05-09T13:44:30.885Z,21.95
2024-05-09T13:50:58.671Z,21.47
2024-05-09T13:53:36.803Z,21.66
2024-05-09T14:05:39.580Z,22.43
2024-05-09T14:08:34.965Z,22.98
2024-05-09T14:11:32.078Z,22.94
2024-05-09T14:14:28.647Z,23.55
2024-05-09T14:17:24.726Z,23.38
2024-05-09T14:23:24.382Z,22.76
2024-05-09T14:26:13.145Z,22.57
2024-05-09T14:32:15.789Z,22.41
2024-05-09T14:35:14.009Z,22.74
2024-05-09T14:38:17.476Z,22.67
2024-05-09T14:41:08.552Z,23.02
2024-05-09T14:50:19.621Z,21.96
2024-05-09T14:53:52.150Z,21.89
2024-05-09T14:59:53.785Z,21.90
2024-05-09T15:06:09.326Z,21.60
2024-05-09T15:08:56.317Z,20.53
2024-05-09T15:11:53.302Z,21.31
2024-05-09T15:15:09.151Z,21.87
2024-05-09T15:18:00.254Z,21.87
2024-05-09T15:20:48.557Z,21.15
2024-05-09T15:23:48.603Z,21.35
2024-05-09T15:26:43.463Z,20.74
2024-05-09T15:29:31.475Z,20.99
2024-05-09T15:41:39.054Z,21.02
2024-05-09T15:44:31.053Z,20.92
2024-05-09T15:47:23.902Z,20.90
2024-05-09T15:50:17.099Z,20.85
2024-05-09T15:53:08.221Z,20.84
2024-05-09T15:59:00.973Z,21.21
2024-05-09T16:01:46.268Z,21.01
2024-05-09T16:04:35.339Z,21.13
2024-05-09T16:07:24.725Z,21.59
2024-05-09T16:10:13.199Z,21.41
2024-05-09T16:13:04.888Z,21.35
2024-05-09T16:15:50.419Z,21.22
2024-05-09T16:18:37.690Z,21.61
2024-05-09T16:21:34.464Z,21.65
2024-05-09T16:24:19.992Z,22.03
2024-05-09T16:27:05.363Z,20.95
2024-05-09T16:29:50.731Z,20.86
2024-05-09T16:32:36.223Z,20.91
2024-05-09T16:35:21.267Z,21.12
2024-05-09T16:38:06.549Z,20.42
2024-05-09T16:40:59.562Z,20.00
2024-05-09T16:43:44.891Z,20.41
2024-05-09T16:46:30.410Z,20.83
2024-05-09T16:49:16.011Z,20.97
2024-05-09T16:52:01.632Z,20.82
2024-05-09T16:54:46.860Z,20.80
2024-05-09T16:57:31.893Z,20.73
2024-05-09T17:00:25.589Z,20.76
2024-05-09T17:03:17.382Z,20.68
2024-05-09T17:06:02.997Z,20.00
2024-05-09T17:08:48.603Z,19.99
2024-05-09T17:11:41.384Z,20.21
2024-05-09T17:14:29.225Z,19.92
2024-05-09T17:17:14.893Z,19.85
2024-05-09T17:23:00.522Z,20.15
2024-05-09T17:32:00.991Z,20.13
2024-05-09T17:34:46.356Z,20.46
2024-05-09T17:37:33.137Z,20.58
2024-05-09T17:40:27.903Z,20.17
2024-05-09T17:43:19.130Z,20.00
2024-05-09T17:46:13.674Z,20.23
2024-05-09T17:49:01.342Z,19.82
2024-05-09T17:51:47.426Z,19.58
2024-05-09T17:54:34.500Z,19.37
2024-05-09T17:57:20.012Z,19.15
2024-05-09T18:00:17.441Z,19.31
2024-05-09T18:03:06.738Z,19.39
2024-05-09T18:05:57.854Z,19.52
2024-05-09T18:08:43.323Z,19.47
2024-05-09T18:11:31.806Z,19.56
2024-05-09T18:14:17.058Z,19.57
2024-05-09T18:17:02.211Z,19.49
2024-05-09T18:19:47.469Z,20.01
2024-05-09T18:22:35.456Z,20.46
2024-05-09T18:25:20.718Z,20.31
2024-05-09T18:28:13.573Z,19.91
2024-05-09T18:31:02.809Z,20.10
2024-05-09T18:33:51.223Z,20.13
2024-05-09T18:36:37.178Z,20.44
2024-05-09T18:39:25.674Z,20.01
2024-05-09T18:42:10.684Z,19.71
2024-05-09T18:45:00.431Z,19.58
2024-05-09T18:47:46.069Z,19.82
2024-05-09T18:50:37.292Z,19.93
2024-05-09T18:53:25.143Z,19.82
2024-05-09T18:56:10.631Z,19.41
2024-05-09T18:58:55.775Z,19.18
2024-05-09T19:01:44.153Z,19.19
2024-05-09T19:04:29.421Z,19.31
2024-05-09T19:07:15.078Z,19.36
2024-05-09T19:10:00.491Z,19.65
2024-05-09T19:12:57.223Z,19.18
2024-05-09T19:15:43.389Z,19.32
2024-05-09T19:18:29.416Z,19.40
2024-05-09T19:21:14.935Z,19.12
2024-05-09T19:24:01.626Z,19.25
2024-05-09T19:26:49.267Z,19.40
2024-05-09T19:29:37.869Z,19.35
2024-05-09T19:32:27.715Z,18.55
2024-05-09T19:35:13.152Z,19.20
2024-05-09T19:38:00.911Z,18.96
2024-05-09T19:40:46.621Z,19.20
2024-05-09T19:43:34.601Z,18.88
2024-05-09T19:46:21.087Z,18.84
2024-05-09T19:49:06.920Z,18.56
2024-05-09T19:51:52.610Z,18.87
2024-05-09T19:54:43.300Z,18.92
2024-05-09T19:57:28.530Z,19.07
2024-05-09T20:00:22.236Z,18.93
2024-05-09T20:03:17.989Z,18.80
2024-05-09T20:06:09.659Z,18.50
2024-05-09T20:08:56.508Z,18.53
2024-05-09T20:11:50.376Z,18.43
2024-05-09T20:14:39.594Z,17.99
2024-05-09T20:17:25.103Z,18.12
2024-05-09T20:20:20.126Z,17.99
2024-05-09T20:23:15.614Z,17.52
2024-05-09T20:26:00.910Z,17.73
2024-05-09T20:28:51.496Z,17.84
2024-05-09T20:31:38.741Z,18.07
2024-05-09T20:34:25.410Z,18.10
2024-05-09T20:37:18.158Z,18.20
2024-05-09T20:40:05.168Z,18.08
2024-05-09T20:42:53.330Z,17.51
2024-05-09T20:45:39.960Z,17.61
2024-05-09T20:48:25.970Z,17.42
2024-05-09T20:51:12.511Z,17.50
2024-05-09T20:54:00.539Z,17.39
2024-05-09T20:56:45.802Z,17.40
2024-05-09T20:59:32.416Z,17.01
2024-05-09T21:02:18.290Z,17.09
2024-05-09T21:05:03.716Z,17.30
2024-05-09T21:07:48.821Z,17.41
2024-05-09T21:10:34.795Z,17.60
2024-05-09T21:13:25.948Z,17.29
2024-05-09T21:16:11.853Z,17.42
2024-05-09T21:18:57.421Z,17.65
2024-05-09T21:21:42.643Z,17.77
2024-05-09T21:24:27.923Z,17.63
2024-05-09T21:27:13.515Z,17.89
2024-05-09T21:29:58.893Z,17.57
2024-05-09T21:32:44.567Z,17.97
2024-05-09T21:35:30.027Z,17.68
2024-05-09T21:38:15.029Z,17.97
2024-05-09T21:41:02.626Z,18.21
2024-05-09T21:43:48.199Z,18.30
2024-05-09T21:46:35.883Z,18.49
2024-05-09T21:49:23.705Z,18.46
2024-05-09T21:52:08.885Z,18.34
2024-05-09T21:54:54.013Z,17.96
2024-05-09T21:57:45.745Z,17.80
2024-05-09T22:00:38.225Z,17.59
2024-05-09T22:03:25.135Z,17.41
2024-05-09T22:06:11.788Z,17.38
2024-05-09T22:08:57.233Z,17.34
2024-05-09T22:11:48.129Z,17.08
2024-05-09T22:14:41.247Z,17.46
2024-05-09T22:17:39.527Z,17.68
2024-05-09T22:20:36.548Z,17.23
2024-05-09T22:23:24.543Z,17.04
2024-05-09T22:26:09.839Z,17.04
2024-05-09T22:28:59.453Z,16.91
2024-05-09T22:31:46.305Z,17.14
2024-05-09T22:34:39.456Z,17.53
2024-05-09T22:40:33.047Z,17.29
2024-05-09T22:43:27.925Z,17.22
2024-05-09T22:46:13.205Z,17.15
2024-05-09T22:49:00.729Z,17.08
2024-05-09T22:51:48.932Z,17.32
2024-05-09T22:54:34.187Z,17.56
2024-05-09T22:57:20.769Z,17.34
2024-05-09T23:00:12.402Z,16.98
2024-05-09T23:02:57.459Z,17.18
2024-05-09T23:05:42.680Z,16.85
2024-05-09T23:08:28.585Z,17.14
2024-05-09T23:11:14.291Z,16.88
2024-05-09T23:13:59.771Z,16.71
2024-05-09T23:16:45.554Z,17.06
2024-05-09T23:19:31.296Z,17.04
2024-05-09T23:22:16.815Z,17.15
2024-05-09T23:25:02.004Z,17.16
2024-05-09T23:27:47.826Z,17.59
2024-05-09T23:30:37.868Z,17.54
2024-05-09T23:33:29.919Z,17.79
2024-05-09T23:36:17.628Z,17.35
2024-05-09T23:39:05.823Z,17.49
2024-05-09T23:41:51.551Z,17.23
2024-05-09T23:44:37.568Z,17.20
2024-05-09T23:47:22.920Z,17.75
2024-05-09T23:50:20.272Z,17.66
2024-05-09T23:53:10.066Z,17.38
2024-05-09T23:55:56.250Z,17.55
2024-05-09T23:58:44.177Z,17.08
